Time;durP1;ratioP1;P1;durP2;ratioP2;P2;SDS_P1;SDS_P2;PMS_P1;PMS_P2;Temp;Humidity;BMP_temperature;BMP_pressure;BME280_temperature;BME280_humidity;BME280_pressure;Samples;Min_cycle;Max_cycle;Signal;HPM_P1;HPM_P2
2022/09/03 00:02:04;;;;;;;59.20;31.70;;;14.10;99.90;;;;;;5032916;28;20132;-76
2022/09/03 00:04:57;;;;;;;54.17;29.73;;;14.00;99.90;;;;;;5039548;28;20430;-76
2022/09/03 00:07:41;;;;;;;53.25;28.13;;;13.90;99.90;;;;;;5051244;28;20179;-76
2022/09/03 00:10:12;;;;;;;53.33;29.80;;;13.90;99.90;;;;;;5050432;28;20039;-76
2022/09/03 00:12:43;;;;;;;67.75;31.88;;;13.80;99.90;;;;;;5050595;28;20392;-76
2022/09/03 00:15:14;;;;;;;67.50;34.30;;;13.80;99.90;;;;;;5032780;28;20496;-76
2022/09/03 00:18:03;;;;;;;62.72;34.70;;;13.80;99.90;;;;;;5032734;28;20113;-76
2022/09/03 00:20:36;;;;;;;74.13;36.08;;;13.90;99.90;;;;;;5032320;28;20620;-76
2022/09/03 00:23:09;;;;;;;64.50;35.00;;;14.00;99.90;;;;;;5032794;28;20013;-76
2022/09/03 00:25:41;;;;;;;69.07;31.88;;;14.00;99.90;;;;;;5032252;28;20021;-75
2022/09/03 00:28:24;;;;;;;60.25;33.45;;;14.00;99.90;;;;;;5032177;28;20036;-75
2022/09/03 00:30:55;;;;;;;65.68;32.50;;;14.00;99.90;;;;;;5032613;28;20064;-76
2022/09/03 00:33:26;;;;;;;64.97;32.10;;;13.90;99.90;;;;;;5032635;28;20060;-76
2022/09/03 00:36:01;;;;;;;58.55;30.90;;;13.90;99.90;;;;;;5032157;28;20083;-76
2022/09/03 00:38:30;;;;;;;57.95;31.88;;;13.90;99.90;;;;;;5032243;28;20029;-75
2022/09/03 00:41:16;;;;;;;53.80;29.15;;;13.80;99.90;;;;;;5032308;28;20033;-76
2022/09/03 00:43:58;;;;;;;55.13;29.00;;;13.80;99.90;;;;;;5032379;28;20470;-76
2022/09/03 00:46:33;;;;;;;;;;;13.80;99.90;;;;;;5032680;28;20033;-76
2022/09/03 00:49:40;;;;;;;51.13;28.17;;;13.90;99.90;;;;;;5032121;28;19973;-75
2022/09/03 00:52:44;;;;;;;54.45;28.02;;;13.80;99.90;;;;;;5032190;28;20473;-75
2022/09/03 00:55:40;;;;;;;47.55;27.42;;;13.80;99.90;;;;;;5032302;28;20528;-76
2022/09/03 00:58:12;;;;;;;47.63;27.65;;;13.80;99.90;;;;;;5032276;28;20028;-76
2022/09/03 01:00:42;;;;;;;49.83;26.10;;;13.70;99.90;;;;;;5031684;28;20706;-75
2022/09/03 01:03:30;;;;;;;49.17;26.58;;;13.60;99.90;;;;;;5032105;28;20033;-75
2022/09/03 01:06:17;;;;;;;49.38;27.35;;;13.60;99.90;;;;;;5031273;28;20026;-75
2022/09/03 01:09:01;;;;;;;58.38;29.83;;;13.60;99.90;;;;;;5031206;28;20104;-76
2022/09/03 01:11:48;;;;;;;58.20;30.00;;;13.50;99.90;;;;;;5031371;28;20065;-76
2022/09/03 01:14:36;;;;;;;51.13;28.27;;;13.50;99.90;;;;;;5030897;28;20049;-75
2022/09/03 01:17:28;;;;;;;46.85;26.80;;;13.50;99.90;;;;;;5031775;28;20026;-75
2022/09/03 01:20:06;;;;;;;;;;;13.50;99.90;;;;;;5031808;28;20044;-75
2022/09/03 01:22:50;;;;;;;49.33;25.38;;;13.60;99.90;;;;;;5031319;28;19904;-76
2022/09/03 01:25:32;;;;;;;42.78;24.88;;;13.60;99.90;;;;;;5031465;28;20493;-75
2022/09/03 01:28:19;;;;;;;42.90;25.38;;;13.50;99.90;;;;;;5030983;28;20028;-75
2022/09/03 01:30:53;;;;;;;44.42;24.83;;;13.50;99.90;;;;;;5031511;28;20033;-76
2022/09/03 01:33:37;;;;;;;46.08;26.38;;;13.40;99.90;;;;;;5030767;28;20025;-76
2022/09/03 01:36:20;;;;;;;44.22;26.05;;;13.50;99.90;;;;;;5031470;28;20033;-76
2022/09/03 01:39:11;;;;;;;47.92;25.92;;;13.40;99.90;;;;;;5031324;28;20025;-76
2022/09/03 01:42:14;;;;;;;52.13;26.77;;;13.40;99.90;;;;;;5031199;28;20028;-76
2022/09/03 01:45:20;;;;;;;56.08;29.38;;;13.40;99.90;;;;;;5031211;28;20931;-75
2022/09/03 01:48:31;;;;;;;55.08;28.63;;;13.40;99.90;;;;;;5029208;28;20402;-76
2022/09/03 01:51:19;;;;;;;50.20;27.23;;;13.40;99.90;;;;;;5030711;28;20440;-76
2022/09/03 01:54:23;;;;;;;48.55;26.95;;;13.30;99.90;;;;;;5031232;28;20050;-76
2022/09/03 01:57:00;;;;;;;52.05;27.60;;;13.30;99.90;;;;;;5031093;28;20021;-75
2022/09/03 01:59:36;;;;;;;45.47;26.17;;;13.20;99.90;;;;;;5030550;28;20438;-75
2022/09/03 02:02:18;;;;;;;46.70;25.17;;;13.20;99.90;;;;;;5030904;28;20025;-73
2022/09/03 02:05:06;;;;;;;52.20;27.73;;;13.20;99.90;;;;;;5030852;28;20026;-76
2022/09/03 02:07:35;;;;;;;54.80;28.38;;;13.30;99.90;;;;;;5030819;28;20013;-76
2022/09/03 02:10:03;;;;;;;53.05;28.73;;;13.30;99.90;;;;;;5030870;28;20036;-76
2022/09/03 02:12:32;;;;;;;48.97;29.13;;;13.30;99.90;;;;;;5030326;28;20029;-76
2022/09/03 02:15:00;;;;;;;43.40;24.65;;;13.30;99.90;;;;;;5030946;28;20026;-76
2022/09/03 02:17:25;;;;;;;42.45;24.33;;;13.20;99.90;;;;;;5030745;28;20018;-75
2022/09/03 02:19:51;;;;;;;47.08;26.52;;;13.20;99.90;;;;;;5031510;28;20541;-75
2022/09/03 02:22:17;;;;;;;51.88;26.08;;;13.10;99.90;;;;;;5032906;28;20028;-75
2022/09/03 02:24:43;;;;;;;45.60;26.27;;;13.10;99.90;;;;;;5035105;28;20104;-76
2022/09/03 02:27:08;;;;;;;45.67;26.95;;;13.10;99.90;;;;;;5035043;28;20021;-76
2022/09/03 02:29:35;;;;;;;51.97;27.55;;;13.10;99.90;;;;;;5034275;28;20032;-75
2022/09/03 02:32:00;;;;;;;47.70;26.40;;;13.10;99.90;;;;;;5033630;28;20037;-75
2022/09/03 02:34:26;;;;;;;52.35;27.63;;;13.20;99.90;;;;;;5034752;28;20068;-76
2022/09/03 02:36:53;;;;;;;53.65;27.75;;;13.20;99.90;;;;;;5033717;28;20421;-75
2022/09/03 02:39:19;;;;;;;50.13;28.23;;;13.30;99.90;;;;;;5035022;28;20378;-76
2022/09/03 02:41:56;;;;;;;50.88;25.90;;;13.40;99.90;;;;;;5034693;28;20466;-75
2022/09/03 02:44:30;;;;;;;50.85;26.55;;;13.40;99.90;;;;;;5034377;28;20402;-76
2022/09/03 02:47:05;;;;;;;50.95;28.33;;;13.50;99.90;;;;;;5034534;28;20052;-75
2022/09/03 02:49:31;;;;;;;52.45;27.45;;;13.50;99.90;;;;;;5034485;28;20091;-75
2022/09/03 02:52:05;;;;;;;49.42;26.50;;;13.50;99.90;;;;;;5034576;28;20099;-75
2022/09/03 02:54:34;;;;;;;48.65;27.35;;;13.60;99.90;;;;;;5034502;28;20026;-75
2022/09/03 02:57:00;;;;;;;57.72;30.30;;;13.60;99.90;;;;;;5034434;28;20634;-76
2022/09/03 02:59:29;;;;;;;50.65;26.25;;;13.60;99.90;;;;;;5032617;28;20371;-76
2022/09/03 03:01:55;;;;;;;46.63;26.60;;;13.60;99.90;;;;;;5034669;28;20030;-76
2022/09/03 03:04:21;;;;;;;52.08;26.63;;;13.60;99.90;;;;;;5034457;28;20104;-76
2022/09/03 03:06:49;;;;;;;49.83;26.58;;;13.70;99.90;;;;;;5034254;28;20540;-76
2022/09/03 03:09:15;;;;;;;45.28;26.98;;;13.70;99.90;;;;;;5033883;28;20052;-75
2022/09/03 03:11:41;;;;;;;44.03;25.63;;;13.70;99.90;;;;;;5034281;28;20033;-76
2022/09/03 03:14:07;;;;;;;42.47;25.50;;;13.80;99.90;;;;;;5033227;28;20351;-75
2022/09/03 03:16:33;;;;;;;43.30;24.67;;;13.80;99.90;;;;;;5033970;28;20025;-76
2022/09/03 03:18:59;;;;;;;39.13;23.85;;;14.00;99.90;;;;;;5034790;28;20018;-76
2022/09/03 03:21:25;;;;;;;47.45;25.75;;;13.90;99.90;;;;;;5034120;28;20512;-76
2022/09/03 03:23:51;;;;;;;42.13;24.48;;;14.00;99.90;;;;;;5034049;28;20100;-76
2022/09/03 03:26:19;;;;;;;47.90;24.85;;;14.00;99.90;;;;;;5033608;28;20017;-76
2022/09/03 03:28:50;;;;;;;49.92;27.02;;;14.00;99.90;;;;;;5033221;28;20108;-75
2022/09/03 03:31:21;;;;;;;42.60;25.10;;;13.90;99.90;;;;;;5033832;28;20075;-76
2022/09/03 03:33:58;;;;;;;43.92;25.13;;;13.90;99.90;;;;;;5033217;28;20030;-76
2022/09/03 03:36:27;;;;;;;43.47;25.35;;;13.90;99.90;;;;;;5033672;28;20408;-76
2022/09/03 03:38:55;;;;;;;40.90;25.27;;;13.90;99.90;;;;;;5033351;28;20025;-75
2022/09/03 03:41:23;;;;;;;40.53;24.13;;;13.90;99.90;;;;;;5033537;28;20469;-76
2022/09/03 03:43:56;;;;;;;49.00;28.05;;;13.90;99.90;;;;;;5033283;28;20021;-76
2022/09/03 03:46:23;;;;;;;47.13;24.15;;;13.80;99.90;;;;;;5033569;28;20036;-75
2022/09/03 03:48:50;;;;;;;41.20;24.05;;;13.80;99.90;;;;;;5033514;28;20037;-76
2022/09/03 03:51:16;;;;;;;49.17;26.90;;;13.70;99.90;;;;;;5033101;28;20038;-76
2022/09/03 03:53:43;;;;;;;48.47;26.83;;;13.70;99.90;;;;;;5033159;28;20021;-76
2022/09/03 03:56:12;;;;;;;42.90;25.30;;;13.60;99.90;;;;;;5033460;28;20029;-75
2022/09/03 03:58:42;;;;;;;50.10;27.20;;;13.60;99.90;;;;;;5033051;28;20343;-75
2022/09/03 04:01:10;;;;;;;51.70;26.08;;;13.50;99.90;;;;;;5033051;28;20037;-76
2022/09/03 04:03:37;;;;;;;46.83;26.27;;;13.40;99.90;;;;;;5033160;28;20048;-76
2022/09/03 04:06:04;;;;;;;42.47;24.98;;;13.40;99.90;;;;;;5033150;28;20026;-75
2022/09/03 04:08:33;;;;;;;45.00;25.58;;;13.30;99.90;;;;;;5033352;28;20473;-76
2022/09/03 04:11:00;;;;;;;51.92;27.23;;;13.30;99.90;;;;;;5033231;28;20037;-76
2022/09/03 04:13:31;;;;;;;45.72;24.00;;;13.30;99.90;;;;;;5031053;28;20025;-76
2022/09/03 04:16:26;;;;;;;41.13;24.50;;;13.30;99.90;;;;;;5033125;28;20492;-76
2022/09/03 04:18:55;;;;;;;53.55;27.48;;;13.30;99.90;;;;;;5032884;28;20041;-76
2022/09/03 04:21:27;;;;;;;53.03;28.05;;;13.20;99.90;;;;;;5032967;28;20029;-75
2022/09/03 04:23:53;;;;;;;51.78;29.17;;;13.20;99.90;;;;;;5032427;28;20056;-75
2022/09/03 04:26:22;;;;;;;54.40;28.65;;;13.20;99.90;;;;;;5031660;28;20129;-76
2022/09/03 04:28:48;;;;;;;45.97;26.67;;;13.20;99.90;;;;;;5032414;28;20022;-75
2022/09/03 04:31:15;;;;;;;47.33;26.63;;;13.10;99.90;;;;;;5031336;28;20038;-75
2022/09/03 04:33:41;;;;;;;46.70;26.20;;;13.10;99.90;;;;;;5032834;28;20014;-76
2022/09/03 04:36:10;;;;;;;44.97;25.52;;;13.10;99.90;;;;;;5032687;28;20074;-76
2022/09/03 04:38:38;;;;;;;43.38;24.80;;;13.10;99.90;;;;;;5032754;28;20056;-75
2022/09/03 04:41:05;;;;;;;46.45;25.17;;;13.00;99.90;;;;;;5032256;28;20494;-76
2022/09/03 04:43:31;;;;;;;51.95;24.35;;;13.00;99.90;;;;;;5032221;28;20079;-75
2022/09/03 04:45:59;;;;;;;45.35;25.27;;;12.90;99.90;;;;;;5031602;28;20117;-76
2022/09/03 04:48:27;;;;;;;52.92;27.38;;;12.90;99.90;;;;;;5032588;28;20022;-75
2022/09/03 04:50:53;;;;;;;58.67;29.27;;;13.00;99.90;;;;;;5031917;28;20029;-76
2022/09/03 04:53:20;;;;;;;54.53;26.77;;;12.90;99.90;;;;;;5031982;28;20018;-76
2022/09/03 04:55:45;;;;;;;49.65;26.45;;;13.00;99.90;;;;;;5032126;28;20115;-76
2022/09/03 04:58:11;;;;;;;44.67;26.27;;;13.00;99.90;;;;;;5031985;28;20052;-76
2022/09/03 05:00:37;;;;;;;52.10;26.05;;;13.10;99.90;;;;;;5031705;28;20033;-76
2022/09/03 05:03:06;;;;;;;58.85;27.70;;;13.10;99.90;;;;;;5032189;28;20409;-76
2022/09/03 05:05:32;;;;;;;47.72;24.65;;;13.00;99.90;;;;;;5032035;28;20193;-76
2022/09/03 05:08:02;;;;;;;45.10;25.60;;;13.10;99.90;;;;;;5032174;28;20021;-76
2022/09/03 05:10:28;;;;;;;51.92;27.75;;;13.10;99.90;;;;;;5032159;28;20426;-76
2022/09/03 05:13:01;;;;;;;53.60;28.20;;;13.00;99.90;;;;;;5030859;28;20505;-76
2022/09/03 05:15:28;;;;;;;50.97;28.55;;;13.00;99.90;;;;;;5032079;28;20109;-76
2022/09/03 05:17:58;;;;;;;52.00;26.75;;;13.00;99.90;;;;;;5032122;28;20033;-75
2022/09/03 05:20:25;;;;;;;52.53;29.13;;;12.90;99.90;;;;;;5031537;28;20013;-76
2022/09/03 05:22:51;;;;;;;51.03;26.98;;;12.90;99.90;;;;;;5031735;28;20025;-76
2022/09/03 05:25:18;;;;;;;51.53;27.42;;;12.90;99.90;;;;;;5031459;28;20510;-76
2022/09/03 05:27:43;;;;;;;58.90;28.67;;;12.90;99.90;;;;;;5030773;28;20032;-75
2022/09/03 05:30:11;;;;;;;55.67;28.15;;;12.80;99.90;;;;;;5030282;28;20034;-75
2022/09/03 05:32:36;;;;;;;55.30;29.10;;;12.90;99.90;;;;;;5031622;28;20049;-76
2022/09/03 05:35:02;;;;;;;55.05;28.85;;;12.90;99.90;;;;;;5031226;28;20103;-76
2022/09/03 05:37:28;;;;;;;45.30;24.17;;;12.90;99.90;;;;;;5031649;28;20100;-76
2022/09/03 05:39:53;;;;;;;52.17;26.75;;;13.00;99.90;;;;;;5031275;28;20049;-76
2022/09/03 05:42:20;;;;;;;54.65;27.17;;;13.00;99.90;;;;;;5031626;28;20025;-75
2022/09/03 05:44:48;;;;;;;56.47;27.23;;;13.00;99.90;;;;;;5031443;28;20023;-75
2022/09/03 05:47:14;;;;;;;53.72;27.30;;;12.90;99.90;;;;;;5031486;28;20024;-76
2022/09/03 05:49:40;;;;;;;51.00;25.50;;;12.90;99.90;;;;;;5031000;28;20075;-76
2022/09/03 05:52:07;;;;;;;48.70;24.45;;;12.90;99.90;;;;;;5031418;28;20033;-76
2022/09/03 05:54:33;;;;;;;46.55;23.80;;;13.00;99.90;;;;;;5029877;28;20026;-75
2022/09/03 05:56:58;;;;;;;46.15;23.70;;;12.90;99.90;;;;;;5031221;28;20033;-75
2022/09/03 05:59:24;;;;;;;44.70;24.45;;;12.90;99.90;;;;;;5031321;28;20108;-76
2022/09/03 06:01:50;;;;;;;47.33;24.48;;;12.90;99.90;;;;;;5031270;28;20040;-76
2022/09/03 06:04:15;;;;;;;43.47;24.23;;;12.90;99.90;;;;;;5031157;28;20052;-75
2022/09/03 06:06:46;;;;;;;52.75;26.90;;;12.90;99.90;;;;;;5030881;28;20416;-76
2022/09/03 06:09:15;;;;;;;57.03;28.77;;;12.90;99.90;;;;;;5030867;28;20056;-75
2022/09/03 06:11:41;;;;;;;47.70;26.58;;;13.10;99.90;;;;;;5030525;28;20436;-76
2022/09/03 06:14:09;;;;;;;56.33;27.75;;;13.20;99.90;;;;;;5030799;28;20022;-75
2022/09/03 06:16:38;;;;;;;57.60;29.65;;;13.20;99.90;;;;;;5031112;28;20025;-76
2022/09/03 06:19:08;;;;;;;53.25;26.98;;;13.20;99.90;;;;;;5031505;28;20036;-76
2022/09/03 06:21:35;;;;;;;45.50;24.85;;;13.30;99.90;;;;;;5031205;28;20434;-75
2022/09/03 06:24:02;;;;;;;53.92;26.48;;;13.40;99.90;;;;;;5031149;28;20018;-76
2022/09/03 06:26:28;;;;;;;52.05;28.88;;;13.50;99.90;;;;;;5031255;28;20057;-76
2022/09/03 06:28:55;;;;;;;47.08;26.77;;;13.70;99.90;;;;;;5030698;28;20105;-75
2022/09/03 06:31:21;;;;;;;51.45;27.55;;;13.80;99.90;;;;;;5030785;28;20486;-76
2022/09/03 06:33:48;;;;;;;53.35;29.92;;;13.90;99.90;;;;;;5031040;28;20021;-76
2022/09/03 06:36:18;;;;;;;54.20;29.60;;;14.10;99.90;;;;;;5030918;28;20494;-76
2022/09/03 06:38:45;;;;;;;63.72;30.90;;;14.30;99.90;;;;;;5030854;28;20036;-75
2022/09/03 06:41:19;;;;;;;53.78;29.20;;;14.40;99.90;;;;;;5030636;28;20028;-76
2022/09/03 06:43:46;;;;;;;54.35;29.23;;;14.60;99.90;;;;;;5030293;28;20017;-76
2022/09/03 06:46:18;;;;;;;51.22;28.35;;;14.80;99.90;;;;;;5030711;28;20425;-75
2022/09/03 06:48:44;;;;;;;54.90;29.73;;;14.90;99.90;;;;;;5030554;28;20100;-76
2022/09/03 06:51:16;;;;;;;55.35;29.42;;;15.00;99.90;;;;;;5031025;28;20087;-75
2022/09/03 06:53:44;;;;;;;56.10;30.45;;;15.10;99.90;;;;;;5029454;28;20032;-76
2022/09/03 06:56:12;;;;;;;48.33;27.77;;;15.20;99.90;;;;;;5030577;28;20030;-76
2022/09/03 06:58:44;;;;;;;52.47;28.63;;;15.30;99.90;;;;;;5030343;28;20470;-76
2022/09/03 07:01:14;;;;;;;54.45;30.63;;;15.40;99.90;;;;;;5030697;28;20072;-76
2022/09/03 07:03:42;;;;;;;61.53;31.65;;;15.40;99.90;;;;;;5030906;28;20558;-76
2022/09/03 07:06:13;;;;;;;58.70;32.78;;;15.50;99.90;;;;;;5030674;28;20029;-76
2022/09/03 07:08:41;;;;;;;55.83;32.65;;;15.60;99.90;;;;;;5032689;28;20013;-75
2022/09/03 07:11:11;;;;;;;49.60;30.20;;;15.80;99.90;;;;;;5033766;28;20037;-76
2022/09/03 07:13:39;;;;;;;52.20;30.83;;;15.90;99.90;;;;;;5033044;28;20018;-76
2022/09/03 07:16:08;;;;;;;52.08;31.52;;;16.20;99.90;;;;;;5034124;28;20021;-75
2022/09/03 07:18:34;;;;;;;55.03;33.20;;;16.40;99.90;;;;;;5034144;28;20017;-76
2022/09/03 07:21:01;;;;;;;50.97;31.02;;;16.60;99.90;;;;;;5033767;28;20021;-76
2022/09/03 07:23:28;;;;;;;48.25;30.33;;;16.80;99.90;;;;;;5034163;28;20021;-75
2022/09/03 07:26:00;;;;;;;55.10;33.63;;;17.00;99.90;;;;;;5033946;28;20030;-76
2022/09/03 07:28:27;;;;;;;56.53;34.00;;;17.20;99.90;;;;;;5033891;28;20025;-76
2022/09/03 07:30:54;;;;;;;54.95;34.13;;;17.40;99.90;;;;;;5033609;28;20045;-75
2022/09/03 07:33:20;;;;;;;56.47;33.17;;;17.60;99.90;;;;;;5032285;28;20056;-76
2022/09/03 07:35:46;;;;;;;49.40;32.83;;;17.80;99.90;;;;;;5033178;28;20068;-76
2022/09/03 07:38:18;;;;;;;56.22;33.50;;;18.00;99.90;;;;;;5033493;28;20033;-76
2022/09/03 07:40:46;;;;;;;51.05;31.55;;;18.30;99.90;;;;;;5033141;28;20382;-75
2022/09/03 07:43:12;;;;;;;43.53;30.55;;;18.40;99.90;;;;;;5032887;28;20432;-75
2022/09/03 07:45:38;;;;;;;46.70;29.02;;;18.70;99.90;;;;;;5033640;28;20025;-75
2022/09/03 07:48:04;;;;;;;48.22;30.05;;;19.00;99.90;;;;;;5033694;28;20028;-76
2022/09/03 07:50:36;;;;;;;44.17;28.40;;;19.40;99.90;;;;;;5033098;28;20029;-76
2022/09/03 07:53:02;;;;;;;41.90;27.33;;;19.80;99.90;;;;;;5032690;28;20025;-76
2022/09/03 07:55:28;;;;;;;40.53;27.13;;;19.90;99.90;;;;;;5032386;28;20489;-75
2022/09/03 07:57:58;;;;;;;41.55;27.23;;;19.90;99.90;;;;;;5033465;28;20029;-76
2022/09/03 08:00:24;;;;;;;42.97;25.83;;;19.80;99.90;;;;;;5033265;28;20022;-76
2022/09/03 08:02:55;;;;;;;41.00;26.45;;;19.80;99.90;;;;;;5032318;28;20060;-76
2022/09/03 08:05:21;;;;;;;43.13;26.38;;;19.80;99.90;;;;;;5033248;28;20120;-76
2022/09/03 08:07:47;;;;;;;38.70;25.55;;;19.70;99.90;;;;;;5031961;28;20104;-76
2022/09/03 08:10:15;;;;;;;38.65;24.73;;;19.80;99.90;;;;;;5033212;28;20029;-75
2022/09/03 08:12:41;;;;;;;37.50;24.55;;;19.80;99.90;;;;;;5032485;28;20030;-76
2022/09/03 08:15:07;;;;;;;36.50;24.30;;;19.80;99.90;;;;;;5032674;28;20104;-78
2022/09/03 08:17:33;;;;;;;32.53;22.63;;;20.00;99.90;;;;;;5032864;28;20017;-76
2022/09/03 08:19:59;;;;;;;30.55;20.13;;;20.10;99.90;;;;;;5032334;28;20028;-76
2022/09/03 08:22:24;;;;;;;30.48;19.27;;;20.20;99.90;;;;;;5032099;28;20026;-78
2022/09/03 08:24:53;;;;;;;28.92;19.63;;;20.30;99.90;;;;;;5032456;28;20028;-76
2022/09/03 08:27:23;;;;;;;30.23;19.88;;;20.50;99.90;;;;;;5032366;28;20021;-76
2022/09/03 08:29:48;;;;;;;28.73;19.83;;;20.60;99.90;;;;;;5031056;28;20112;-76
2022/09/03 08:32:14;;;;;;;25.05;16.95;;;20.70;99.90;;;;;;5032903;28;20116;-76
2022/09/03 08:34:40;;;;;;;22.95;15.88;;;20.70;99.90;;;;;;5031580;28;20026;-76
2022/09/03 08:37:11;;;;;;;25.30;16.10;;;20.70;99.90;;;;;;5031432;28;20080;-76
2022/09/03 08:39:37;;;;;;;23.77;15.68;;;20.80;99.90;;;;;;5032496;28;20021;-76
2022/09/03 08:42:04;;;;;;;17.92;13.13;;;20.90;99.90;;;;;;5032590;28;20033;-76
2022/09/03 08:44:53;;;;;;;19.73;15.43;;;21.10;99.90;;;;;;5032528;28;20021;-76
2022/09/03 08:47:44;;;;;;;19.65;13.45;;;21.30;99.90;;;;;;5030687;28;20025;-76
2022/09/03 08:50:25;;;;;;;20.42;13.63;;;21.30;99.90;;;;;;5031913;28;20029;-77
2022/09/03 08:53:05;;;;;;;22.27;12.25;;;21.40;99.90;;;;;;5032303;28;20067;-78
2022/09/03 08:55:35;;;;;;;16.25;10.85;;;21.50;99.90;;;;;;5041503;28;20102;-77
2022/09/03 08:58:13;;;;;;;16.50;11.38;;;21.70;99.90;;;;;;5067861;28;20044;-77
2022/09/03 09:00:42;;;;;;;14.43;9.93;;;21.80;99.90;;;;;;5060600;28;20044;-76
2022/09/03 09:03:20;;;;;;;14.20;9.00;;;22.10;99.90;;;;;;5045990;28;20021;-75
2022/09/03 09:05:54;;;;;;;12.88;8.98;;;22.30;99.90;;;;;;5031940;28;20025;-76
2022/09/03 09:08:45;;;;;;;11.20;7.50;;;22.50;99.90;;;;;;5032134;28;20014;-77
2022/09/03 09:11:11;;;;;;;10.35;7.20;;;22.70;99.90;;;;;;5030083;28;20041;-76
2022/09/03 09:13:48;;;;;;;12.48;6.85;;;22.70;98.10;;;;;;5031420;28;20021;-76
2022/09/03 09:16:37;;;;;;;7.00;6.20;;;22.80;97.70;;;;;;5031800;28;20492;-76
2022/09/03 09:19:29;;;;;;;6.70;5.38;;;23.00;95.60;;;;;;5032190;28;20027;-76
2022/09/03 09:21:59;;;;;;;;;;;23.10;96.30;;;;;;5031070;28;20386;-76
2022/09/03 09:24:31;;;;;;;8.20;5.25;;;23.30;94.50;;;;;;5030478;28;19905;-76
2022/09/03 09:26:59;;;;;;;6.90;4.72;;;23.60;91.60;;;;;;5030447;28;20112;-76
2022/09/03 09:29:32;;;;;;;6.68;5.72;;;23.90;85.90;;;;;;5030911;28;20100;-76
2022/09/03 09:31:58;;;;;;;6.93;5.20;;;24.20;84.00;;;;;;5031343;28;20044;-76
2022/09/03 09:34:24;;;;;;;5.82;4.80;;;24.40;77.10;;;;;;5031634;28;20025;-77
2022/09/03 09:36:52;;;;;;;6.72;4.65;;;24.80;73.30;;;;;;5031840;28;20104;-78
2022/09/03 09:39:19;;;;;;;5.70;4.00;;;24.90;68.70;;;;;;5030241;28;20025;-76
2022/09/03 09:42:07;;;;;;;2.47;2.20;;;25.00;72.50;;;;;;5031747;28;20113;-78
2022/09/03 09:44:33;;;;;;;1.60;1.50;;;25.90;64.20;;;;;;5030105;28;20057;-77
2022/09/03 09:47:10;;;;;;;2.30;2.10;;;26.90;61.30;;;;;;5034684;28;20025;-77
2022/09/03 09:49:42;;;;;;;3.35;2.42;;;27.50;57.20;;;;;;5051267;28;20021;-77
2022/09/03 09:52:14;;;;;;;1.83;1.50;;;28.30;56.30;;;;;;5051085;28;20120;-78
2022/09/03 09:54:42;;;;;;;1.77;1.38;;;29.90;51.40;;;;;;5050257;28;20060;-77
2022/09/03 09:57:17;;;;;;;4.03;1.70;;;30.50;47.30;;;;;;5034228;28;20053;-78
2022/09/03 09:59:45;;;;;;;2.38;1.88;;;31.20;47.50;;;;;;5030861;28;20398;-78
2022/09/03 10:02:19;;;;;;;4.20;1.63;;;32.00;44.40;;;;;;5030477;28;20018;-78
2022/09/03 10:04:45;;;;;;;1.92;1.65;;;32.70;42.80;;;;;;5031018;28;20051;-78
2022/09/03 10:07:30;;;;;;;1.42;1.33;;;33.10;41.60;;;;;;5031187;28;20028;-78
2022/09/03 10:10:02;;;;;;;1.90;1.70;;;32.40;41.30;;;;;;5031123;28;20026;-78
2022/09/03 10:12:40;;;;;;;2.40;2.10;;;31.80;43.60;;;;;;5031073;28;20029;-78
2022/09/03 10:15:45;;;;;;;4.25;2.40;;;31.70;44.50;;;;;;5030460;28;20108;-78
2022/09/03 10:18:35;;;;;;;2.60;2.40;;;31.10;44.60;;;;;;5030638;28;20102;-78
2022/09/03 10:21:30;;;;;;;2.55;1.70;;;32.30;43.60;;;;;;5030959;28;20378;-77
2022/09/03 10:24:06;;;;;;;2.22;1.70;;;33.50;41.40;;;;;;5029740;28;20079;-77
2022/09/03 10:26:32;;;;;;;2.65;1.90;;;34.20;42.10;;;;;;5030699;28;20624;-78
2022/09/03 10:29:03;;;;;;;2.50;1.92;;;33.20;40.50;;;;;;5030920;28;20496;-79
2022/09/03 10:31:38;;;;;;;2.28;1.90;;;32.30;41.50;;;;;;5030874;28;20037;-77
2022/09/03 10:34:35;;;;;;;3.10;1.92;;;32.10;44.40;;;;;;5031054;28;20030;-76
2022/09/03 10:37:18;;;;;;;1.55;1.35;;;31.30;41.20;;;;;;5030993;28;20025;-76
2022/09/03 10:40:11;;;;;;;1.73;1.63;;;30.20;45.80;;;;;;5030683;28;20053;-76
2022/09/03 10:42:54;;;;;;;1.70;1.60;;;30.20;46.00;;;;;;5031146;28;20017;-77
2022/09/03 10:45:36;;;;;;;1.98;1.60;;;29.60;44.90;;;;;;5034682;28;20041;-76
2022/09/03 10:48:34;;;;;;;2.25;2.05;;;29.20;46.60;;;;;;5033354;28;20432;-76
2022/09/03 10:51:23;;;;;;;2.00;1.85;;;29.30;46.80;;;;;;5034136;28;20029;-77
2022/09/03 10:54:10;;;;;;;2.00;1.90;;;29.70;46.80;;;;;;5034414;28;20057;-76
2022/09/03 10:56:50;;;;;;;5.05;2.40;;;30.00;46.70;;;;;;5034173;28;20026;-76
2022/09/03 10:59:38;;;;;;;2.13;1.95;;;29.30;47.70;;;;;;5034296;28;20071;-76
2022/09/03 11:02:10;;;;;;;2.92;2.72;;;29.00;47.50;;;;;;5034344;28;20092;-76
2022/09/03 11:04:49;;;;;;;2.35;2.00;;;28.90;48.60;;;;;;5034403;28;20033;-75
2022/09/03 11:07:22;;;;;;;3.78;2.75;;;28.90;48.60;;;;;;5034087;28;20029;-76
2022/09/03 11:09:50;;;;;;;3.35;2.63;;;29.10;48.80;;;;;;5036484;28;20525;-76
2022/09/03 11:12:25;;;;;;;4.15;2.33;;;29.20;48.90;;;;;;5053033;28;20044;-76
2022/09/03 11:15:31;;;;;;;4.00;2.45;;;29.90;49.80;;;;;;5033703;28;20040;-76
2022/09/03 11:18:36;;;;;;;3.30;2.70;;;30.80;46.30;;;;;;5034070;28;20434;-76
2022/09/03 11:21:06;;;;;;;3.30;3.00;;;31.70;44.70;;;;;;5033045;28;20462;-76
2022/09/03 11:23:36;;;;;;;3.67;3.38;;;32.50;44.30;;;;;;5033570;28;20398;-76
2022/09/03 11:26:07;;;;;;;2.75;2.47;;;31.50;43.90;;;;;;5032936;28;20033;-76
2022/09/03 11:28:58;;;;;;;3.15;2.75;;;30.90;42.80;;;;;;5034190;28;20029;-76
2022/09/03 11:31:24;;;;;;;5.47;4.10;;;30.80;45.70;;;;;;5043511;28;20038;-76
2022/09/03 11:34:14;;;;;;;4.05;3.35;;;30.30;44.60;;;;;;5033299;28;20428;-76
2022/09/03 11:36:40;;;;;;;3.67;3.35;;;30.10;46.10;;;;;;5031967;28;20107;-76
2022/09/03 11:39:31;;;;;;;4.45;3.88;;;30.30;46.40;;;;;;5033619;28;20474;-77
2022/09/03 11:42:03;;;;;;;5.07;3.38;;;29.40;47.10;;;;;;5033157;28;20038;-76
2022/09/03 11:44:37;;;;;;;8.10;4.15;;;29.60;49.20;;;;;;5033646;28;20025;-76
2022/09/03 11:47:20;;;;;;;5.93;4.40;;;30.40;47.60;;;;;;5033534;28;20036;-77
2022/09/03 11:49:49;;;;;;;6.50;3.78;;;30.40;48.30;;;;;;5033791;28;20028;-76
2022/09/03 11:52:26;;;;;;;4.47;3.42;;;30.20;47.00;;;;;;5033460;28;20045;-76
2022/09/03 11:54:52;;;;;;;3.70;3.30;;;29.70;49.40;;;;;;5032682;28;20049;-74
2022/09/03 11:57:31;;;;;;;5.15;4.35;;;28.60;48.90;;;;;;5032920;28;20053;-76
2022/09/03 12:00:17;;;;;;;5.78;3.50;;;27.70;53.00;;;;;;5033165;28;20441;-76
2022/09/03 12:03:00;;;;;;;6.10;4.35;;;27.30;54.50;;;;;;5032917;28;20104;-76
2022/09/03 12:06:04;;;;;;;5.72;4.95;;;27.00;56.30;;;;;;5033341;28;20041;-76
2022/09/03 12:08:48;;;;;;;8.45;5.63;;;26.60;57.30;;;;;;5032901;28;20033;-76
2022/09/03 12:11:34;;;;;;;11.32;7.00;;;26.40;59.50;;;;;;5032674;28;20034;-75
2022/09/03 12:14:00;;;;;;;9.10;6.88;;;25.90;61.90;;;;;;5030970;28;20026;-76
2022/09/03 12:16:47;;;;;;;8.77;7.30;;;25.60;63.80;;;;;;5030584;28;20020;-75
2022/09/03 12:19:38;;;;;;;8.05;6.13;;;25.20;67.40;;;;;;5030388;28;20485;-76
2022/09/03 12:22:04;;;;;;;7.20;5.60;;;25.40;68.20;;;;;;5031977;28;20033;-76
2022/09/03 12:24:36;;;;;;;15.32;7.88;;;25.50;69.20;;;;;;5032588;28;20017;-75
2022/09/03 12:27:02;;;;;;;;;;;25.50;67.40;;;;;;5032996;28;20057;-76
2022/09/03 12:29:29;;;;;;;9.48;7.22;;;25.40;69.80;;;;;;5031395;28;20357;-76
2022/09/03 12:32:05;;;;;;;7.15;5.93;;;25.20;68.80;;;;;;5032947;28;20029;-77
2022/09/03 12:34:31;;;;;;;7.15;5.00;;;24.80;69.10;;;;;;5044710;28;20064;-75
2022/09/03 12:36:57;;;;;;;7.13;4.00;;;24.80;69.60;;;;;;5046142;28;20474;-76
2022/09/03 12:39:25;;;;;;;5.85;3.67;;;25.20;70.10;;;;;;5032597;28;20021;-76
2022/09/03 12:42:02;;;;;;;4.90;3.53;;;25.30;67.40;;;;;;5032787;28;20096;-76
2022/09/03 12:44:46;;;;;;;5.07;3.38;;;25.10;65.40;;;;;;5032402;28;20022;-76
2022/09/03 12:47:17;;;;;;;4.57;3.58;;;25.30;64.50;;;;;;5032033;28;20026;-76
2022/09/03 12:49:47;;;;;;;5.30;4.03;;;25.20;63.40;;;;;;5049481;28;20040;-76
2022/09/03 12:52:32;;;;;;;6.47;3.33;;;25.40;65.30;;;;;;5051777;28;20037;-76
2022/09/03 12:55:07;;;;;;;4.18;3.72;;;25.50;64.50;;;;;;5051707;28;20025;-75
2022/09/03 12:57:45;;;;;;;4.40;3.05;;;25.90;62.80;;;;;;5051639;28;20017;-76
2022/09/03 13:00:15;;;;;;;5.22;2.90;;;27.30;61.00;;;;;;5051498;28;20023;-75
2022/09/03 13:02:55;;;;;;;5.53;3.47;;;29.30;55.00;;;;;;5051737;28;20022;-75
2022/09/03 13:05:40;;;;;;;3.75;2.88;;;31.10;48.30;;;;;;5044642;28;20125;-76